createdAt,value
2019-02-02T00:00:44.258Z,31.30
2019-02-02T00:03:34.496Z,33.67
2019-02-02T00:06:24.494Z,32.73
2019-02-02T00:09:14.569Z,31.63
2019-02-02T00:12:05.022Z,33.27
2019-02-02T00:14:55.123Z,31.77
2019-02-02T00:17:45.361Z,31.53
2019-02-02T00:20:35.502Z,30.83
2019-02-02T00:23:26.074Z,31.13
2019-02-02T00:26:16.314Z,30.90
2019-02-02T00:29:06.795Z,28.50
2019-02-02T00:31:57.112Z,29.33
2019-02-02T00:34:47.709Z,30.33
2019-02-02T00:37:38.978Z,30.17
2019-02-02T00:40:29.359Z,29.60
2019-02-02T00:43:19.646Z,27.53
2019-02-02T00:46:10.114Z,27.93
2019-02-02T00:49:00.339Z,28.07
2019-02-02T00:51:50.682Z,25.23
2019-02-02T00:54:40.986Z,24.17
2019-02-02T00:57:31.534Z,25.83
2019-02-02T01:00:22.366Z,25.43
2019-02-02T01:03:12.622Z,26.60
2019-02-02T01:06:04.856Z,25.03
2019-02-02T01:08:55.293Z,26.60
2019-02-02T01:11:46.646Z,27.70
2019-02-02T01:14:36.749Z,26.50
2019-02-02T01:17:26.997Z,27.37
2019-02-02T01:20:17.877Z,24.80
2019-02-02T01:23:08.663Z,28.50
2019-02-02T01:25:58.675Z,27.70
2019-02-02T01:28:48.752Z,28.10
2019-02-02T01:31:38.918Z,28.53
2019-02-02T01:34:29.358Z,29.70
2019-02-02T01:37:19.725Z,28.80
2019-02-02T01:40:12.750Z,27.03
2019-02-02T01:43:02.669Z,27.23
2019-02-02T01:45:52.869Z,26.73
2019-02-02T01:48:42.877Z,28.20
2019-02-02T01:51:32.970Z,27.33
2019-02-02T01:54:23.041Z,27.13
2019-02-02T01:57:13.393Z,26.70
2019-02-02T02:00:04.354Z,26.70
2019-02-02T02:02:54.606Z,28.07
2019-02-02T02:05:45.011Z,27.43
2019-02-02T02:08:35.361Z,27.93
2019-02-02T02:11:25.614Z,27.97
2019-02-02T02:14:17.082Z,26.07
2019-02-02T02:17:07.913Z,26.07
2019-02-02T02:19:58.250Z,26.10
2019-02-02T02:22:48.857Z,25.60
2019-02-02T02:25:39.394Z,26.37
2019-02-02T02:28:29.579Z,26.67
2019-02-02T02:31:20.141Z,27.20
2019-02-02T02:34:11.253Z,27.47
2019-02-02T02:37:01.340Z,26.50
2019-02-02T02:39:51.500Z,26.47
2019-02-02T02:42:41.882Z,28.87
2019-02-02T02:45:32.046Z,28.47
2019-02-02T02:48:23.114Z,29.30
2019-02-02T02:51:13.409Z,29.27
2019-02-02T02:54:03.626Z,29.20
2019-02-02T02:56:53.863Z,29.17
2019-02-02T02:59:44.260Z,29.93
2019-02-02T03:02:34.374Z,29.73
2019-02-02T03:05:24.609Z,29.63
2019-02-02T03:08:15.130Z,31.53
2019-02-02T03:11:05.485Z,31.27
2019-02-02T03:13:56.485Z,30.60
2019-02-02T03:16:47.210Z,33.50
2019-02-02T03:19:37.406Z,31.73
2019-02-02T03:22:27.748Z,34.23
2019-02-02T03:25:20.242Z,32.27
2019-02-02T03:28:10.502Z,35.80
2019-02-02T03:31:00.792Z,34.03
2019-02-02T03:33:51.127Z,33.97
2019-02-02T03:36:41.422Z,33.93
2019-02-02T03:39:31.754Z,36.07
2019-02-02T03:42:22.085Z,35.47
2019-02-02T03:45:13.692Z,34.10
2019-02-02T03:48:04.082Z,35.90
2019-02-02T03:50:54.287Z,34.73
2019-02-02T03:53:45.046Z,35.33
2019-02-02T03:56:34.983Z,34.70
2019-02-02T03:59:25.078Z,35.93
2019-02-02T04:02:15.377Z,33.73
2019-02-02T04:05:07.369Z,34.77
2019-02-02T04:07:57.816Z,36.17
2019-02-02T04:10:47.851Z,35.80
2019-02-02T04:13:38.357Z,37.07
2019-02-02T04:16:28.630Z,35.53
2019-02-02T04:19:18.985Z,36.83
2019-02-02T04:22:08.921Z,35.33
2019-02-02T04:24:59.274Z,35.90
2019-02-02T04:27:49.343Z,35.20
2019-02-02T04:30:39.819Z,36.63
2019-02-02T04:33:30.200Z,37.43
2019-02-02T04:36:20.818Z,36.97
2019-02-02T04:39:11.182Z,34.67
2019-02-02T04:42:01.297Z,35.20
2019-02-02T04:44:51.491Z,35.13
2019-02-02T04:47:41.674Z,35.90
2019-02-02T04:50:32.082Z,35.23
2019-02-02T04:53:22.236Z,33.80
2019-02-02T04:56:12.626Z,35.70
2019-02-02T04:59:02.637Z,33.57
2019-02-02T05:01:53.041Z,34.13
2019-02-02T05:04:43.820Z,31.57
2019-02-02T05:07:34.194Z,33.33
2019-02-02T05:10:24.432Z,32.17
2019-02-02T05:13:15.302Z,31.57
2019-02-02T05:16:05.838Z,31.80
2019-02-02T05:18:56.712Z,32.67
2019-02-02T05:21:46.762Z,32.77
2019-02-02T05:24:37.302Z,31.23
2019-02-02T05:27:27.614Z,33.00
2019-02-02T05:30:23.562Z,31.97
2019-02-02T05:33:13.840Z,33.77
2019-02-02T05:36:04.310Z,32.03
2019-02-02T05:38:54.275Z,30.10
2019-02-02T05:41:44.467Z,28.57
2019-02-02T05:44:35.158Z,28.73
2019-02-02T05:47:25.325Z,26.67
2019-02-02T05:50:19.076Z,25.47
2019-02-02T05:53:08.975Z,25.37
2019-02-02T05:55:59.306Z,25.37
2019-02-02T05:58:49.391Z,24.90
2019-02-02T06:01:39.882Z,24.50
2019-02-02T06:04:30.218Z,22.13
2019-02-02T06:07:21.056Z,22.30
2019-02-02T06:10:12.930Z,22.70
2019-02-02T06:13:02.957Z,20.97
2019-02-02T06:15:52.895Z,20.43
2019-02-02T06:18:42.986Z,19.33
2019-02-02T06:21:33.378Z,17.00
2019-02-02T06:24:23.502Z,18.60
2019-02-02T06:27:13.519Z,15.93
2019-02-02T06:30:05.029Z,16.33
2019-02-02T06:32:55.489Z,15.83
2019-02-02T06:35:45.941Z,15.23
2019-02-02T06:38:36.281Z,14.07
2019-02-02T06:41:26.682Z,14.00
2019-02-02T06:44:16.962Z,12.27
2019-02-02T06:47:07.237Z,12.77
2019-02-02T06:49:57.425Z,14.30
2019-02-02T06:52:47.656Z,13.80
2019-02-02T06:55:37.916Z,14.30
2019-02-02T06:58:28.751Z,13.37
2019-02-02T07:01:18.858Z,13.97
2019-02-02T07:04:09.069Z,13.37
2019-02-02T07:06:59.327Z,13.33
2019-02-02T07:09:49.851Z,13.20
2019-02-02T07:12:40.101Z,13.43
2019-02-02T07:15:30.522Z,13.50
2019-02-02T07:18:21.277Z,13.77
2019-02-02T07:21:11.280Z,13.53
2019-02-02T07:24:01.223Z,14.33
2019-02-02T07:26:51.533Z,13.57
2019-02-02T07:29:41.669Z,13.83
2019-02-02T07:32:31.943Z,13.70
2019-02-02T07:35:22.652Z,15.23
2019-02-02T07:38:13.963Z,14.10
2019-02-02T07:41:04.479Z,13.73
2019-02-02T07:43:54.581Z,13.27
2019-02-02T07:46:44.576Z,12.80
2019-02-02T07:49:35.546Z,12.47
2019-02-02T07:52:25.598Z,13.07
2019-02-02T07:55:17.250Z,12.33
2019-02-02T07:58:07.362Z,12.17
2019-02-02T08:00:57.482Z,12.30
2019-02-02T08:03:48.035Z,12.40
2019-02-02T08:06:38.151Z,11.20
2019-02-02T08:09:28.514Z,11.63
2019-02-02T08:12:19.545Z,11.20
2019-02-02T08:15:12.664Z,10.67
2019-02-02T08:18:02.676Z,10.97
2019-02-02T08:20:52.898Z,10.50
2019-02-02T08:23:43.136Z,10.73
2019-02-02T08:26:33.518Z,10.60
2019-02-02T08:29:24.535Z,10.33
2019-02-02T08:32:14.658Z,10.97
2019-02-02T08:35:05.735Z,10.10
2019-02-02T08:37:56.266Z,10.10
2019-02-02T08:40:46.846Z,9.87
2019-02-02T08:43:36.849Z,11.10
2019-02-02T08:46:26.856Z,10.60
2019-02-02T08:49:17.030Z,10.57
2019-02-02T08:52:07.384Z,10.63
2019-02-02T08:54:57.315Z,10.60
2019-02-02T08:57:47.810Z,10.37
2019-02-02T09:00:38.123Z,9.07
2019-02-02T09:03:28.352Z,9.97
2019-02-02T09:06:19.246Z,8.50
2019-02-02T09:09:10.424Z,8.83
2019-02-02T09:12:00.870Z,9.00
2019-02-02T09:14:50.874Z,9.20
2019-02-02T09:17:41.250Z,8.17
2019-02-02T09:20:31.598Z,8.20
2019-02-02T09:23:21.888Z,8.33
2019-02-02T09:26:12.238Z,8.10
2019-02-02T09:29:02.171Z,11.50
2019-02-02T09:31:52.506Z,7.93
2019-02-02T09:34:42.770Z,8.30
2019-02-02T09:37:33.278Z,8.70
2019-02-02T09:40:25.595Z,8.03
2019-02-02T09:43:17.369Z,9.77
2019-02-02T09:46:07.910Z,8.67
2019-02-02T09:48:58.076Z,9.70
2019-02-02T09:51:48.485Z,10.53
2019-02-02T09:54:38.466Z,10.50
2019-02-02T09:57:28.821Z,10.13
2019-02-02T10:00:38.098Z,9.33
2019-02-02T10:03:28.354Z,9.07
2019-02-02T10:06:18.618Z,9.53
2019-02-02T10:09:09.874Z,9.57
2019-02-02T10:12:00.110Z,9.33
2019-02-02T10:14:50.694Z,9.83
2019-02-02T10:17:40.730Z,10.73
2019-02-02T10:20:31.426Z,9.93
2019-02-02T10:23:21.463Z,9.53
2019-02-02T10:26:11.693Z,9.50
2019-02-02T10:29:02.538Z,10.17
2019-02-02T10:31:52.810Z,9.33
2019-02-02T10:34:43.410Z,9.87
2019-02-02T10:37:33.438Z,10.43
2019-02-02T10:40:23.802Z,8.67
2019-02-02T10:43:14.082Z,8.87
2019-02-02T10:46:04.446Z,9.80
2019-02-02T10:48:55.022Z,9.30
2019-02-02T10:51:45.138Z,9.87
2019-02-02T10:54:35.563Z,8.77
2019-02-02T10:57:25.793Z,9.37
2019-02-02T11:00:18.949Z,9.80
2019-02-02T11:03:08.797Z,10.17
2019-02-02T11:05:58.890Z,10.27
2019-02-02T11:08:49.098Z,10.40
2019-02-02T11:11:39.513Z,9.50
2019-02-02T11:14:29.514Z,9.27
2019-02-02T11:17:19.684Z,9.10
2019-02-02T11:20:13.115Z,9.07
2019-02-02T11:23:03.798Z,9.47
2019-02-02T11:25:54.277Z,9.97
2019-02-02T11:28:44.785Z,9.20
2019-02-02T11:31:34.785Z,10.73
2019-02-02T11:34:24.916Z,10.70
2019-02-02T11:37:15.106Z,10.13
2019-02-02T11:40:07.326Z,12.10
2019-02-02T11:42:58.551Z,14.93
2019-02-02T11:45:48.522Z,10.93
2019-02-02T11:48:40.197Z,9.63
2019-02-02T11:51:30.139Z,10.47
2019-02-02T11:54:20.310Z,10.23
2019-02-02T11:57:10.845Z,9.87
2019-02-02T12:00:01.076Z,9.93
2019-02-02T12:02:51.581Z,9.87
2019-02-02T12:05:41.690Z,10.17
2019-02-02T12:08:31.657Z,10.17
2019-02-02T12:11:22.148Z,10.87
2019-02-02T12:14:12.272Z,10.80
2019-02-02T12:17:02.453Z,12.10
2019-02-02T12:19:52.620Z,11.13
2019-02-02T12:22:42.899Z,11.97
2019-02-02T12:25:33.106Z,13.13
2019-02-02T12:28:23.352Z,12.93
2019-02-02T12:31:13.581Z,12.63
2019-02-02T12:34:03.690Z,12.97
2019-02-02T12:36:53.991Z,13.40
2019-02-02T12:39:43.997Z,12.93
2019-02-02T12:42:34.319Z,13.20
2019-02-02T12:45:27.654Z,12.80
2019-02-02T12:48:18.494Z,13.53
2019-02-02T12:51:08.810Z,12.13
2019-02-02T12:53:59.294Z,12.73
2019-02-02T12:56:50.789Z,12.57
2019-02-02T12:59:41.011Z,12.43
2019-02-02T13:02:38.120Z,12.90
2019-02-02T13:05:23.414Z,11.20
2019-02-02T13:08:13.834Z,12.37
2019-02-02T13:11:04.190Z,12.07
2019-02-02T13:13:54.522Z,11.17
2019-02-02T13:16:44.739Z,11.83
2019-02-02T13:19:34.899Z,12.03
2019-02-02T13:22:24.950Z,11.93
2019-02-02T13:25:16.905Z,12.50
2019-02-02T13:28:07.303Z,11.30
2019-02-02T13:30:58.177Z,12.27
2019-02-02T13:33:48.174Z,12.83
2019-02-02T13:36:38.457Z,13.60
2019-02-02T13:39:29.883Z,13.73
2019-02-02T13:42:20.841Z,13.77
2019-02-02T13:45:11.530Z,12.07
2019-02-02T13:48:01.690Z,12.10
2019-02-02T13:50:52.055Z,11.87
2019-02-02T13:53:42.234Z,10.80
2019-02-02T13:56:32.615Z,10.10
2019-02-02T13:59:22.986Z,9.47
2019-02-02T14:02:13.033Z,9.10
2019-02-02T14:05:03.323Z,11.37
2019-02-02T14:07:53.343Z,9.67
2019-02-02T14:10:43.461Z,8.97
2019-02-02T14:13:33.662Z,11.13
2019-02-02T14:16:23.618Z,12.47
2019-02-02T14:19:13.911Z,11.67
2019-02-02T14:22:05.174Z,11.23
2019-02-02T14:24:55.679Z,11.87
2019-02-02T14:27:45.695Z,9.53
2019-02-02T14:30:36.010Z,9.70
2019-02-02T14:33:26.113Z,9.80
2019-02-02T14:36:16.341Z,10.03
2019-02-02T14:39:09.538Z,9.13
2019-02-02T14:41:59.743Z,7.63
2019-02-02T14:44:50.228Z,7.70
2019-02-02T14:48:09.663Z,7.63
2019-02-02T14:51:05.100Z,7.80
2019-02-02T14:53:55.142Z,8.10
2019-02-02T14:56:47.961Z,6.97
2019-02-02T14:59:36.742Z,5.27
2019-02-02T15:02:26.930Z,4.90
2019-02-02T15:05:19.246Z,4.00
2019-02-02T15:08:09.609Z,3.50
2019-02-02T15:10:59.791Z,3.70
2019-02-02T15:13:50.149Z,3.43
2019-02-02T15:16:40.159Z,2.73
2019-02-02T15:19:30.218Z,2.77
2019-02-02T15:22:20.559Z,2.80
2019-02-02T15:25:10.720Z,3.30
2019-02-02T15:28:00.858Z,3.27
2019-02-02T15:30:50.853Z,4.03
2019-02-02T15:33:40.834Z,4.23
2019-02-02T15:36:31.383Z,4.00
2019-02-02T15:39:21.858Z,4.03
2019-02-02T15:42:13.030Z,4.37
2019-02-02T15:45:03.202Z,3.83
2019-02-02T15:47:55.902Z,4.37
2019-02-02T15:50:45.903Z,4.80
2019-02-02T15:53:36.254Z,6.03
2019-02-02T15:56:26.306Z,5.30
2019-02-02T15:59:16.674Z,5.50
2019-02-02T16:02:06.751Z,5.47
2019-02-02T16:04:56.654Z,5.60
2019-02-02T16:07:46.890Z,7.70
2019-02-02T16:10:36.818Z,7.47
2019-02-02T16:13:27.138Z,7.03
2019-02-02T16:16:17.190Z,6.83
2019-02-02T16:19:07.195Z,7.60
2019-02-02T16:21:57.538Z,7.73
2019-02-02T16:24:47.825Z,7.30
2019-02-02T16:27:38.186Z,7.33
2019-02-02T16:30:28.862Z,7.20
2019-02-02T16:33:18.982Z,7.03
2019-02-02T16:36:09.446Z,8.40
2019-02-02T16:38:59.413Z,8.00
2019-02-02T16:41:49.474Z,8.53
2019-02-02T16:44:39.450Z,8.30
2019-02-02T16:47:29.781Z,8.37
2019-02-02T16:50:20.166Z,7.10
2019-02-02T16:53:10.841Z,6.47
2019-02-02T16:56:01.157Z,6.57
2019-02-02T16:58:51.079Z,6.27
2019-02-02T17:01:41.361Z,6.77
2019-02-02T17:04:32.560Z,5.93
2019-02-02T17:07:22.822Z,5.83
2019-02-02T17:10:18.683Z,6.67
2019-02-02T17:13:08.990Z,6.70
2019-02-02T17:15:59.707Z,6.57
2019-02-02T17:18:49.797Z,6.43
2019-02-02T17:21:40.151Z,6.70
2019-02-02T17:24:30.363Z,7.43
2019-02-02T17:27:20.866Z,6.07
2019-02-02T17:30:14.411Z,6.60
2019-02-02T17:33:06.985Z,5.77
2019-02-02T17:35:56.950Z,5.40
2019-02-02T17:38:47.321Z,5.63
2019-02-02T17:41:37.525Z,6.37
2019-02-02T17:44:28.400Z,5.60
2019-02-02T17:47:18.602Z,5.93
2019-02-02T17:50:11.682Z,5.87
2019-02-02T17:53:01.683Z,6.33
2019-02-02T17:55:51.993Z,6.87
2019-02-02T17:58:42.143Z,6.40
2019-02-02T18:01:32.202Z,6.60
2019-02-02T18:04:22.115Z,6.90
2019-02-02T18:07:12.006Z,6.50
2019-02-02T18:10:02.368Z,6.47
2019-02-02T18:12:53.386Z,7.80
2019-02-02T18:15:43.763Z,7.67
2019-02-02T18:18:34.291Z,7.57
2019-02-02T18:21:24.318Z,7.53
2019-02-02T18:24:14.362Z,6.90
2019-02-02T18:27:04.522Z,7.43
2019-02-02T18:29:54.930Z,6.87
2019-02-02T18:32:45.018Z,7.77
2019-02-02T18:35:35.702Z,7.27
2019-02-02T18:38:25.798Z,7.57
2019-02-02T18:41:16.611Z,8.03
2019-02-02T18:44:06.884Z,8.03
2019-02-02T18:46:57.187Z,9.17
2019-02-02T18:49:47.474Z,9.10
2019-02-02T18:52:37.746Z,7.53
2019-02-02T18:55:49.654Z,7.57
2019-02-02T18:58:39.825Z,7.33
2019-02-02T19:01:30.175Z,7.67
2019-02-02T19:04:20.266Z,6.83
2019-02-02T19:07:10.370Z,6.70
2019-02-02T19:10:00.458Z,6.80
2019-02-02T19:12:50.451Z,7.50
2019-02-02T19:15:40.683Z,8.37
2019-02-02T19:18:31.150Z,8.10
2019-02-02T19:21:21.798Z,7.93
2019-02-02T19:24:12.270Z,7.00
2019-02-02T19:27:02.528Z,7.47
2019-02-02T19:29:53.826Z,7.90
2019-02-02T19:32:44.339Z,7.23
2019-02-02T19:35:34.462Z,7.63
2019-02-02T19:38:24.917Z,7.80
2019-02-02T19:41:14.999Z,7.70
2019-02-02T19:44:05.441Z,7.53
2019-02-02T19:46:55.533Z,8.67
2019-02-02T19:49:45.770Z,8.07
2019-02-02T19:52:36.011Z,8.03
2019-02-02T19:55:26.355Z,8.17
2019-02-02T19:58:16.337Z,9.43
2019-02-02T20:01:06.601Z,6.90
2019-02-02T20:03:56.926Z,7.07
2019-02-02T20:06:47.269Z,7.43
2019-02-02T20:09:37.522Z,7.23
2019-02-02T20:12:27.830Z,7.33
